Time;durP1;ratioP1;P1;durP2;ratioP2;P2;SDS_P1;SDS_P2;PMS_P1;PMS_P2;Temp;Humidity;BMP_temperature;BMP_pressure;BME280_temperature;BME280_humidity;BME280_pressure;Samples;Min_cycle;Max_cycle;Signal;HPM_P1;HPM_P2
2023/10/02 00:05:06;;;;;;;18.10;7.63;;;15.20;100.00;;;;;;4988982;28;20050;-76
2023/10/02 00:07:33;;;;;;;19.73;7.40;;;15.20;100.00;;;;;;4989116;28;20838;-76
2023/10/02 00:10:02;;;;;;;21.83;7.90;;;15.30;100.00;;;;;;4975878;28;20054;-76
2023/10/02 00:12:31;;;;;;;23.52;8.25;;;15.30;100.00;;;;;;4975676;28;20077;-76
2023/10/02 00:15:00;;;;;;;26.00;8.55;;;15.30;100.00;;;;;;4980835;28;20834;-77
2023/10/02 00:17:28;;;;;;;21.65;7.90;;;15.30;100.00;;;;;;4983895;28;20058;-76
2023/10/02 00:19:57;;;;;;;21.45;6.90;;;15.30;100.00;;;;;;4980638;28;20046;-76
2023/10/02 00:22:34;;;;;;;20.67;7.22;;;15.40;100.00;;;;;;4988598;28;20074;-76
2023/10/02 00:25:07;;;;;;;19.88;7.97;;;15.40;100.00;;;;;;4985077;28;20047;-76
2023/10/02 00:27:35;;;;;;;22.50;8.75;;;15.40;100.00;;;;;;4989329;28;20172;-76
2023/10/02 00:30:03;;;;;;;26.88;8.68;;;15.50;100.00;;;;;;4975299;28;20116;-76
2023/10/02 00:32:31;;;;;;;30.75;8.18;;;15.50;100.00;;;;;;4983219;28;20535;-76
2023/10/02 00:35:01;;;;;;;21.45;7.55;;;15.50;100.00;;;;;;4987794;28;20157;-76
2023/10/02 00:37:44;;;;;;;22.75;8.23;;;15.50;100.00;;;;;;4980034;28;20069;-76
2023/10/02 00:40:20;;;;;;;23.52;9.05;;;15.50;100.00;;;;;;4978088;28;20104;-75
2023/10/02 00:42:49;;;;;;;19.98;8.23;;;15.50;100.00;;;;;;4967764;28;20054;-76
2023/10/02 00:45:18;;;;;;;24.17;8.05;;;15.50;100.00;;;;;;4980479;28;20108;-76
2023/10/02 00:47:45;;;;;;;20.27;8.32;;;15.50;100.00;;;;;;4978086;28;20085;-76
2023/10/02 00:50:18;;;;;;;20.80;7.47;;;15.50;100.00;;;;;;4982092;28;20049;-76
2023/10/02 00:53:02;;;;;;;18.77;8.23;;;15.50;100.00;;;;;;4986096;28;20507;-76
2023/10/02 00:55:32;;;;;;;25.10;8.02;;;15.50;100.00;;;;;;4973323;28;20050;-76
2023/10/02 00:58:05;;;;;;;19.30;7.78;;;15.50;100.00;;;;;;4984704;28;20058;-76
2023/10/02 01:00:36;;;;;;;19.58;8.02;;;15.50;100.00;;;;;;4978624;28;20057;-76
2023/10/02 01:03:14;;;;;;;20.02;7.30;;;15.50;100.00;;;;;;4975793;28;20057;-77
2023/10/02 01:05:42;;;;;;;20.08;7.88;;;15.60;100.00;;;;;;4980593;28;20137;-76
2023/10/02 01:08:42;;;;;;;19.48;7.55;;;15.50;100.00;;;;;;4992747;28;20074;-76
2023/10/02 01:11:13;;;;;;;21.10;8.10;;;15.60;100.00;;;;;;4978062;28;20746;-76
2023/10/02 01:13:41;;;;;;;24.05;7.10;;;15.60;100.00;;;;;;4977721;28;20073;-76
2023/10/02 01:16:11;;;;;;;17.85;7.00;;;15.60;100.00;;;;;;4983363;28;20136;-76
2023/10/02 01:18:39;;;;;;;25.50;8.13;;;15.60;100.00;;;;;;4974286;28;20499;-71
2023/10/02 01:21:11;;;;;;;17.73;7.68;;;15.60;100.00;;;;;;4969255;28;20125;-72
2023/10/02 01:24:16;;;;;;;23.88;7.70;;;15.60;100.00;;;;;;4974206;28;20050;-71
2023/10/02 01:26:50;;;;;;;21.95;8.02;;;15.60;100.00;;;;;;4977880;28;20097;-72
2023/10/02 01:29:18;;;;;;;21.70;7.70;;;15.60;100.00;;;;;;4977276;28;20569;-71
2023/10/02 01:31:45;;;;;;;26.92;8.50;;;15.60;100.00;;;;;;4978906;28;20140;-71
2023/10/02 01:37:46;;;;;;;21.48;8.32;;;15.60;100.00;;;;;;4975721;28;20058;-72
2023/10/02 01:39:47;;;;;;;26.48;8.60;;;15.50;100.00;;;;;;4972039;28;20081;-71
2023/10/02 01:42:14;;;;;;;20.67;8.75;;;15.50;100.00;;;;;;4974333;28;20110;-71
2023/10/02 01:44:54;;;;;;;25.42;8.95;;;15.50;100.00;;;;;;4967967;28;20113;-72
2023/10/02 01:47:22;;;;;;;32.17;9.32;;;15.50;100.00;;;;;;4967118;28;20058;-72
2023/10/02 01:49:49;;;;;;;22.65;9.05;;;15.50;100.00;;;;;;4971757;28;20053;-72
2023/10/02 01:52:19;;;;;;;22.95;9.13;;;15.50;100.00;;;;;;4971281;28;20120;-71
2023/10/02 01:54:51;;;;;;;29.25;10.30;;;15.50;100.00;;;;;;4974545;28;20503;-71
2023/10/02 01:57:24;;;;;;;31.75;9.70;;;15.50;100.00;;;;;;4977021;28;20131;-71
2023/10/02 02:00:13;;;;;;;18.90;9.00;;;15.50;100.00;;;;;;4975266;28;20054;-71
2023/10/02 02:02:41;;;;;;;30.13;10.65;;;15.60;100.00;;;;;;4973983;28;20214;-72
2023/10/02 02:05:14;;;;;;;34.85;9.85;;;15.60;100.00;;;;;;4980652;28;20042;-72
2023/10/02 02:07:41;;;;;;;22.90;10.32;;;15.60;100.00;;;;;;4972517;28;20078;-72
2023/10/02 02:10:09;;;;;;;32.75;10.65;;;15.70;100.00;;;;;;4976108;28;20537;-72
2023/10/02 02:12:44;;;;;;;25.40;9.73;;;15.70;100.00;;;;;;4975603;28;20117;-71
2023/10/02 02:15:13;;;;;;;31.85;11.20;;;15.70;100.00;;;;;;4983643;28;20176;-72
2023/10/02 02:17:42;;;;;;;31.02;10.27;;;15.70;100.00;;;;;;4979430;28;20058;-72
2023/10/02 02:20:43;;;;;;;24.83;9.35;;;15.70;100.00;;;;;;4982029;28;20050;-72
2023/10/02 02:23:07;;;;;;;22.35;8.98;;;15.80;100.00;;;;;;4982968;28;20058;-71
2023/10/02 02:25:34;;;;;;;35.78;10.30;;;15.80;100.00;;;;;;4984678;28;20048;-71
2023/10/02 02:28:01;;;;;;;26.98;9.88;;;15.80;100.00;;;;;;4983382;28;20061;-71
2023/10/02 02:30:28;;;;;;;25.35;8.45;;;15.80;100.00;;;;;;4980956;28;20046;-71
2023/10/02 02:32:55;;;;;;;24.98;9.88;;;15.80;100.00;;;;;;4980210;28;20054;-71
2023/10/02 02:35:32;;;;;;;28.90;10.18;;;15.80;100.00;;;;;;4981805;28;20085;-71
2023/10/02 02:37:59;;;;;;;24.75;9.85;;;15.90;100.00;;;;;;4979502;28;20657;-76
2023/10/02 02:40:26;;;;;;;20.83;8.63;;;15.90;100.00;;;;;;4990989;28;20050;-76
2023/10/02 02:42:54;;;;;;;29.95;10.00;;;15.90;100.00;;;;;;4976156;28;20125;-76
2023/10/02 02:45:28;;;;;;;28.30;10.10;;;15.90;100.00;;;;;;4993425;28;20049;-76
2023/10/02 02:48:04;;;;;;;25.25;9.55;;;15.90;100.00;;;;;;4989578;28;20109;-76
2023/10/02 02:50:42;;;;;;;23.33;9.50;;;15.90;100.00;;;;;;4976607;28;20046;-76
2023/10/02 02:53:30;;;;;;;25.08;9.43;;;15.90;100.00;;;;;;4977565;28;20074;-76
2023/10/02 02:58:58;;;;;;;25.42;9.00;;;16.00;100.00;;;;;;4958385;28;20365;-71
2023/10/02 03:01:29;;;;;;;26.77;9.40;;;16.10;100.00;;;;;;4970821;28;20053;-72
2023/10/02 03:03:58;;;;;;;27.58;9.80;;;16.10;100.00;;;;;;4967288;28;20184;-72
2023/10/02 03:06:27;;;;;;;27.50;9.80;;;16.10;100.00;;;;;;4969084;28;20150;-72
2023/10/02 03:08:57;;;;;;;20.80;8.52;;;16.10;100.00;;;;;;4969764;28;20047;-71
2023/10/02 03:11:28;;;;;;;21.77;8.95;;;16.10;100.00;;;;;;4971270;28;20057;-71
2023/10/02 03:14:12;;;;;;;26.92;9.85;;;16.10;100.00;;;;;;4967382;28;20483;-71
2023/10/02 03:16:44;;;;;;;23.23;9.18;;;16.10;100.00;;;;;;4968245;28;20051;-71
2023/10/02 03:19:16;;;;;;;27.17;9.48;;;16.10;100.00;;;;;;4975751;28;20717;-71
2023/10/02 03:21:43;;;;;;;24.83;9.30;;;16.10;100.00;;;;;;4965703;28;20133;-71
2023/10/02 03:24:18;;;;;;;24.88;8.98;;;16.10;100.00;;;;;;4975643;28;20149;-71
2023/10/02 03:26:52;;;;;;;29.48;9.55;;;16.10;100.00;;;;;;4973669;28;20070;-71
2023/10/02 03:32:42;;;;;;;26.27;9.82;;;16.10;100.00;;;;;;4951991;28;20079;-76
2023/10/02 03:35:12;;;;;;;31.95;10.85;;;16.10;100.00;;;;;;4938333;28;20138;-76
2023/10/02 03:37:39;;;;;;;23.08;9.65;;;16.10;100.00;;;;;;4948671;28;20102;-76
2023/10/02 03:40:14;;;;;;;29.40;10.73;;;16.10;100.00;;;;;;4942878;28;20350;-76
2023/10/02 03:42:41;;;;;;;23.50;9.75;;;16.10;100.00;;;;;;4943148;28;20193;-76
2023/10/02 03:45:08;;;;;;;35.72;10.10;;;16.10;100.00;;;;;;4947386;28;20105;-76
2023/10/02 03:47:35;;;;;;;24.42;10.07;;;16.10;100.00;;;;;;4939994;28;20047;-77
2023/10/02 03:50:07;;;;;;;28.63;10.23;;;16.10;100.00;;;;;;4946198;28;20047;-76
2023/10/02 03:52:34;;;;;;;22.90;9.80;;;16.10;100.00;;;;;;4952067;28;20062;-76
2023/10/02 03:55:15;;;;;;;27.60;10.18;;;16.10;100.00;;;;;;4945618;28;20047;-76
2023/10/02 03:57:55;;;;;;;26.20;10.13;;;16.10;99.90;;;;;;4944447;28;20074;-76
2023/10/02 04:00:25;;;;;;;29.48;9.65;;;16.10;99.60;;;;;;4942375;28;20079;-76
2023/10/02 04:02:54;;;;;;;30.65;10.00;;;16.20;99.50;;;;;;4943761;28;20595;-76
2023/10/02 04:05:32;;;;;;;25.35;9.57;;;16.20;99.80;;;;;;4941582;28;20051;-76
2023/10/02 04:08:31;;;;;;;23.42;9.32;;;16.20;100.00;;;;;;4938959;28;20055;-76
2023/10/02 04:11:02;;;;;;;32.13;10.32;;;16.10;100.00;;;;;;4940630;28;20495;-76
2023/10/02 04:13:32;;;;;;;29.98;10.20;;;16.10;99.90;;;;;;4940874;28;20145;-76
2023/10/02 04:18:47;;;;;;;24.27;8.77;;;16.10;100.00;;;;;;4948820;28;20118;-76
2023/10/02 04:21:19;;;;;;;27.02;9.75;;;16.10;99.70;;;;;;4945966;28;20054;-76
2023/10/02 04:23:46;;;;;;;23.50;9.73;;;16.10;99.60;;;;;;4946043;28;20051;-76
2023/10/02 04:26:19;;;;;;;27.80;9.43;;;16.10;99.50;;;;;;4944844;28;20078;-76
2023/10/02 04:29:14;;;;;;;24.02;9.38;;;16.10;99.80;;;;;;4947006;28;20051;-76
2023/10/02 04:32:04;;;;;;;30.43;9.93;;;16.10;100.00;;;;;;4939840;28;20063;-76
2023/10/02 04:34:36;;;;;;;25.88;9.88;;;16.10;99.50;;;;;;4941576;28;20130;-76
2023/10/02 04:37:19;;;;;;;28.60;10.23;;;16.10;99.70;;;;;;4944987;28;20113;-76
2023/10/02 04:42:25;;;;;;;23.20;8.95;;;16.10;99.50;;;;;;4942918;28;20047;-77
2023/10/02 04:45:17;;;;;;;30.45;9.32;;;16.10;99.30;;;;;;4940946;28;20390;-77
2023/10/02 04:47:44;;;;;;;31.67;8.93;;;16.10;99.40;;;;;;4940982;28;20082;-78
2023/10/02 04:55:41;;;;;;;25.40;9.23;;;16.10;99.30;;;;;;4942359;28;20058;-76
2023/10/02 04:58:19;;;;;;;34.70;10.15;;;16.10;99.20;;;;;;4940214;28;20131;-76
2023/10/02 05:03:33;;;;;;;28.00;9.73;;;16.10;99.60;;;;;;4937923;28;20126;-78
2023/10/02 05:06:00;;;;;;;28.77;9.68;;;16.10;99.50;;;;;;4943676;28;20054;-80
2023/10/02 05:08:40;;;;;;;31.50;10.27;;;16.00;99.60;;;;;;4960970;28;20047;-77
2023/10/02 05:11:26;;;;;;;29.73;9.52;;;16.10;99.10;;;;;;4941888;28;20079;-79
2023/10/02 05:16:33;;;;;;;24.95;9.20;;;16.10;98.80;;;;;;4951191;28;20416;-78
2023/10/02 05:19:05;;;;;;;23.45;9.63;;;16.10;98.70;;;;;;4942474;28;20573;-77
2023/10/02 05:21:36;;;;;;;27.60;9.07;;;16.10;98.70;;;;;;4942835;28;20055;-79
2023/10/02 05:24:11;;;;;;;24.88;9.82;;;16.10;98.80;;;;;;4937688;28;20043;-80
2023/10/02 05:26:41;;;;;;;26.15;9.35;;;16.10;98.80;;;;;;4940962;28;20470;-80
2023/10/02 05:29:17;;;;;;;26.58;9.13;;;16.10;98.60;;;;;;4940388;28;20429;-77
2023/10/02 05:31:45;;;;;;;22.50;8.88;;;16.10;98.60;;;;;;4941539;28;20428;-77
2023/10/02 05:34:24;;;;;;;24.80;9.25;;;16.10;98.70;;;;;;4944054;28;20134;-78
2023/10/02 05:39:40;;;;;;;19.42;8.63;;;16.10;98.90;;;;;;4944969;28;20069;-77
2023/10/02 05:42:14;;;;;;;27.65;9.63;;;16.10;98.70;;;;;;4952388;28;20503;-78
2023/10/02 05:44:45;;;;;;;24.17;9.85;;;16.10;98.80;;;;;;4949712;28;20061;-78
2023/10/02 05:47:16;;;;;;;23.60;9.18;;;16.20;98.70;;;;;;4951121;28;20043;-78
2023/10/02 05:49:47;;;;;;;38.70;9.82;;;16.20;98.80;;;;;;4945573;28;20055;-78
2023/10/02 05:52:18;;;;;;;24.70;8.70;;;16.20;98.90;;;;;;4941272;28;20056;-78
2023/10/02 05:54:55;;;;;;;30.00;9.32;;;16.20;98.80;;;;;;4944532;28;20078;-77
2023/10/02 05:57:22;;;;;;;27.08;9.35;;;16.20;99.00;;;;;;4943168;28;20400;-78
2023/10/02 05:59:54;;;;;;;24.60;9.07;;;16.20;99.20;;;;;;4942707;28;20074;-78
2023/10/02 06:02:23;;;;;;;24.02;9.40;;;16.30;99.40;;;;;;4950944;28;20046;-78
2023/10/02 06:04:54;;;;;;;28.58;8.80;;;16.30;98.60;;;;;;4948327;28;20130;-77
2023/10/02 06:10:25;;;;;;;28.02;8.57;;;16.30;98.10;;;;;;4947147;28;20083;-78
2023/10/02 06:13:03;;;;;;;24.80;8.60;;;16.30;98.10;;;;;;4954774;28;20150;-78
2023/10/02 06:15:44;;;;;;;27.63;9.00;;;16.40;98.10;;;;;;4940775;28;20043;-78
2023/10/02 06:18:24;;;;;;;27.85;9.85;;;16.40;98.40;;;;;;4945892;28;20043;-76
2023/10/02 06:21:00;;;;;;;29.55;9.57;;;16.40;98.20;;;;;;4942446;28;20158;-76
2023/10/02 06:23:39;;;;;;;26.77;9.25;;;16.40;98.20;;;;;;4956644;28;20051;-75
2023/10/02 06:26:10;;;;;;;23.67;9.07;;;16.50;98.40;;;;;;4940472;28;20055;-75
2023/10/02 06:28:38;;;;;;;24.55;9.52;;;16.50;98.30;;;;;;4943315;28;20134;-75
2023/10/02 06:31:06;;;;;;;25.70;9.23;;;16.50;97.90;;;;;;4939672;28;20051;-74
2023/10/02 06:33:37;;;;;;;27.52;9.73;;;16.50;97.20;;;;;;4943623;28;20519;-78
2023/10/02 06:36:07;;;;;;;25.02;9.23;;;16.50;97.20;;;;;;4947291;28;20680;-77
2023/10/02 06:38:36;;;;;;;29.63;9.68;;;16.60;97.00;;;;;;4943496;28;20051;-77
2023/10/02 06:41:12;;;;;;;26.27;8.60;;;16.60;97.20;;;;;;4944796;28;20376;-77
2023/10/02 06:43:40;;;;;;;24.50;9.43;;;16.60;97.60;;;;;;4947074;28;20055;-78
2023/10/02 06:46:15;;;;;;;22.02;9.07;;;16.70;97.80;;;;;;4947085;28;20134;-77
2023/10/02 06:48:43;;;;;;;25.42;8.90;;;16.80;98.00;;;;;;4948820;28;20138;-77
2023/10/02 06:51:11;;;;;;;23.88;9.98;;;16.90;97.40;;;;;;4945312;28;20050;-75
2023/10/02 06:53:40;;;;;;;27.67;9.45;;;17.00;97.40;;;;;;4945068;28;20070;-75
2023/10/02 06:56:10;;;;;;;27.15;9.50;;;17.10;97.00;;;;;;4946617;28;20051;-75
2023/10/02 06:58:54;;;;;;;25.40;9.20;;;17.10;96.00;;;;;;4953284;28;20093;-75
2023/10/02 07:01:27;;;;;;;26.98;9.30;;;17.10;95.80;;;;;;4943745;28;20616;-75
2023/10/02 07:03:56;;;;;;;22.40;8.95;;;17.10;95.10;;;;;;4945422;28;20126;-75
2023/10/02 07:06:24;;;;;;;30.83;8.73;;;17.10;94.60;;;;;;4942659;28;20050;-74
2023/10/02 07:09:11;;;;;;;27.77;9.55;;;17.20;95.30;;;;;;4937896;28;20054;-74
2023/10/02 07:11:42;;;;;;;25.50;9.13;;;17.20;95.10;;;;;;4946681;28;20048;-75
2023/10/02 07:14:10;;;;;;;25.13;9.30;;;17.20;95.00;;;;;;4950526;28;20483;-74
2023/10/02 07:16:37;;;;;;;27.85;9.60;;;17.20;94.90;;;;;;4943850;28;20055;-77
2023/10/02 07:19:05;;;;;;;28.50;8.88;;;17.20;93.90;;;;;;4945304;28;20130;-77
2023/10/02 07:21:35;;;;;;;21.67;8.80;;;17.10;95.10;;;;;;4944889;28;20046;-75
2023/10/02 07:24:33;;;;;;;22.67;8.55;;;17.20;94.80;;;;;;4951789;28;20111;-75
2023/10/02 07:27:00;;;;;;;25.48;9.07;;;17.20;95.00;;;;;;4947194;28;20055;-75
2023/10/02 07:29:37;;;;;;;23.25;8.65;;;17.20;94.60;;;;;;4943422;28;20122;-75
2023/10/02 07:32:06;;;;;;;66.50;12.07;;;17.30;94.20;;;;;;4947425;28;20047;-76
2023/10/02 07:34:34;;;;;;;24.00;8.32;;;17.30;94.00;;;;;;4949145;28;20083;-77
2023/10/02 07:37:05;;;;;;;24.10;8.55;;;17.40;94.20;;;;;;4945397;28;20904;-76
2023/10/02 07:39:35;;;;;;;22.20;8.57;;;17.50;94.60;;;;;;4948931;28;20051;-76
2023/10/02 07:42:04;;;;;;;24.95;8.80;;;17.50;93.60;;;;;;4945039;28;20056;-76
2023/10/02 07:44:38;;;;;;;27.50;9.40;;;17.60;94.30;;;;;;4952442;28;20066;-76
2023/10/02 07:47:19;;;;;;;27.20;9.68;;;17.70;92.90;;;;;;4951259;28;20047;-77
2023/10/02 07:49:48;;;;;;;51.63;10.05;;;17.70;92.10;;;;;;4951411;28;20043;-77
2023/10/02 07:52:35;;;;;;;30.50;8.55;;;17.80;92.80;;;;;;4950479;28;20062;-76
2023/10/02 07:55:03;;;;;;;39.80;9.93;;;17.90;93.50;;;;;;4949506;28;20138;-77
2023/10/02 07:57:33;;;;;;;20.73;7.78;;;17.90;91.90;;;;;;4948908;28;20700;-77
2023/10/02 08:00:05;;;;;;;27.73;9.00;;;17.90;91.70;;;;;;4949754;28;20161;-76
2023/10/02 08:02:35;;;;;;;37.15;9.10;;;18.00;91.70;;;;;;4943961;28;20074;-77
2023/10/02 08:05:05;;;;;;;24.95;8.95;;;18.00;91.60;;;;;;4947065;28;20106;-77
2023/10/02 08:07:33;;;;;;;26.42;9.20;;;18.10;91.20;;;;;;4949088;28;20102;-77
2023/10/02 08:10:15;;;;;;;20.65;8.07;;;18.10;91.80;;;;;;4947865;28;20067;-71
2023/10/02 08:12:54;;;;;;;24.25;9.73;;;18.10;90.50;;;;;;4947375;28;20058;-77
2023/10/02 08:15:32;;;;;;;24.23;9.07;;;18.20;91.20;;;;;;4945396;28;20058;-77
2023/10/02 08:18:03;;;;;;;23.13;9.40;;;18.30;90.60;;;;;;4960285;28;20084;-77
2023/10/02 08:20:40;;;;;;;26.77;9.18;;;18.40;90.70;;;;;;4949748;28;20774;-77
2023/10/02 08:23:21;;;;;;;22.38;8.63;;;18.50;91.10;;;;;;4950529;28;20059;-76
2023/10/02 08:26:05;;;;;;;26.25;9.35;;;18.60;90.00;;;;;;4951062;28;20055;-76
2023/10/02 08:28:53;;;;;;;24.42;8.68;;;18.70;89.70;;;;;;4941320;28;20456;-79
2023/10/02 08:31:24;;;;;;;23.83;9.30;;;18.70;90.10;;;;;;4943827;28;20142;-79
2023/10/02 08:34:03;;;;;;;27.25;8.93;;;18.80;89.50;;;;;;4947941;28;20055;-79
2023/10/02 08:36:37;;;;;;;35.72;9.90;;;18.90;89.10;;;;;;4950212;28;20102;-79
2023/10/02 08:39:05;;;;;;;22.02;8.02;;;18.90;87.80;;;;;;4950427;28;20105;-79
2023/10/02 08:41:46;;;;;;;27.48;9.00;;;19.00;88.70;;;;;;4949610;28;20051;-79
2023/10/02 08:44:14;;;;;;;23.67;8.38;;;19.10;87.30;;;;;;4951452;28;20143;-79
2023/10/02 08:46:43;;;;;;;25.10;8.50;;;19.00;87.50;;;;;;4954540;28;20404;-79
2023/10/02 08:49:12;;;;;;;33.50;8.60;;;19.10;88.60;;;;;;4950691;28;20471;-79
2023/10/02 08:51:48;;;;;;;21.92;8.52;;;19.20;87.80;;;;;;4944502;28;20075;-79
2023/10/02 08:54:17;;;;;;;30.75;9.93;;;19.30;87.10;;;;;;4947298;28;20047;-79
2023/10/02 08:56:45;;;;;;;26.65;8.98;;;19.40;87.60;;;;;;4948791;28;20051;-79
2023/10/02 08:59:35;;;;;;;41.15;9.52;;;19.60;87.40;;;;;;4950062;28;20054;-79
2023/10/02 09:02:11;;;;;;;24.27;9.10;;;19.70;86.30;;;;;;4953600;28;20093;-79
2023/10/02 09:04:40;;;;;;;22.70;9.50;;;19.90;86.10;;;;;;4946125;28;20079;-79
2023/10/02 09:07:25;;;;;;;23.83;8.73;;;20.20;86.00;;;;;;4948303;28;20051;-79
2023/10/02 09:10:12;;;;;;;26.85;8.75;;;20.30;85.10;;;;;;4944214;28;20818;-79
2023/10/02 09:12:50;;;;;;;25.17;9.20;;;20.40;83.30;;;;;;4947358;28;20150;-82
2023/10/02 09:15:34;;;;;;;24.95;8.25;;;20.50;83.80;;;;;;4947889;28;20047;-79
2023/10/02 09:18:19;;;;;;;25.58;9.25;;;20.50;83.00;;;;;;4945999;28;20051;-81
2023/10/02 09:21:04;;;;;;;26.25;8.60;;;20.40;82.70;;;;;;4946641;28;20097;-80
2023/10/02 09:23:31;;;;;;;29.63;8.63;;;20.40;82.00;;;;;;4947663;28;20058;-80
2023/10/02 09:26:17;;;;;;;24.25;8.98;;;20.40;82.10;;;;;;4948637;28;20067;-80
2023/10/02 09:28:58;;;;;;;22.65;7.90;;;20.40;84.90;;;;;;4944712;28;20785;-81
2023/10/02 09:31:34;;;;;;;19.13;8.30;;;20.50;83.40;;;;;;4946260;28;20053;-80
2023/10/02 09:34:10;;;;;;;22.02;8.57;;;20.60;82.80;;;;;;4938705;28;20051;-78
2023/10/02 09:37:08;;;;;;;;;;;20.70;82.40;;;;;;4942572;28;20059;-78
2023/10/02 09:39:55;;;;;;;27.77;9.77;;;20.90;82.50;;;;;;4947018;28;19929;-78
2023/10/02 09:42:22;;;;;;;27.58;9.35;;;21.00;81.50;;;;;;4946415;28;20460;-78
2023/10/02 09:44:53;;;;;;;20.88;8.32;;;20.90;82.30;;;;;;4944499;28;20137;-78
2023/10/02 09:47:21;;;;;;;20.48;7.85;;;21.00;83.30;;;;;;4950241;28;20047;-78
2023/10/02 09:50:25;;;;;;;22.45;8.70;;;21.00;83.00;;;;;;4949884;28;20047;-78
2023/10/02 09:53:08;;;;;;;26.50;9.27;;;21.00;81.10;;;;;;4937919;28;20071;-77
2023/10/02 09:55:57;;;;;;;25.15;9.07;;;21.00;81.90;;;;;;4963752;28;20376;-77
2023/10/02 09:58:49;;;;;;;29.35;10.05;;;21.10;82.30;;;;;;4938768;28;20542;-77
2023/10/02 10:03:55;;;;;;;24.95;9.10;;;21.30;80.20;;;;;;4942881;28;20199;-78
2023/10/02 10:14:42;;;;;;;93.95;12.20;;;21.40;79.40;;;;;;4991769;28;20149;-77
2023/10/02 10:17:21;;;;;;;25.38;9.52;;;21.40;80.30;;;;;;4970137;28;20085;-77
2023/10/02 10:20:07;;;;;;;25.45;9.77;;;21.40;79.80;;;;;;4988134;28;20758;-78
2023/10/02 10:22:38;;;;;;;21.75;8.75;;;21.40;79.20;;;;;;4984458;28;20062;-78
2023/10/02 10:25:33;;;;;;;79.07;11.20;;;21.50;82.20;;;;;;4973408;28;20069;-79
2023/10/02 10:28:08;;;;;;;33.67;10.17;;;21.50;79.70;;;;;;4979824;28;20404;-78
2023/10/02 10:30:42;;;;;;;23.13;8.35;;;21.50;80.30;;;;;;4985570;28;20316;-79
2023/10/02 10:35:48;;;;;;;21.73;9.50;;;21.70;79.20;;;;;;4985458;28;20372;-77
2023/10/02 10:38:26;;;;;;;31.17;8.25;;;21.80;79.80;;;;;;4977309;28;20037;-73
2023/10/02 10:41:31;;;;;;;26.73;9.85;;;21.80;80.30;;;;;;4992185;28;20086;-78
2023/10/02 10:44:06;;;;;;;21.52;8.52;;;22.00;79.20;;;;;;4952033;28;20133;-77
2023/10/02 10:46:37;;;;;;;23.15;9.55;;;22.20;78.90;;;;;;4970033;28;20221;-78
2023/10/02 10:49:10;;;;;;;21.50;8.75;;;22.40;78.60;;;;;;4966825;28;20053;-78
2023/10/02 10:51:38;;;;;;;23.85;9.23;;;22.60;77.40;;;;;;4986300;28;20445;-77
2023/10/02 10:54:25;;;;;;;18.63;8.15;;;22.80;78.00;;;;;;4985666;28;20057;-78
2023/10/02 10:57:19;;;;;;;20.40;8.60;;;22.80;76.30;;;;;;4985602;28;20510;-77
2023/10/02 11:03:14;;;;;;;29.45;9.65;;;23.00;76.30;;;;;;5020844;28;20129;-72
2023/10/02 11:05:43;;;;;;;25.17;8.73;;;23.20;75.80;;;;;;5027452;23;20046;-71
2023/10/02 11:08:28;;;;;;;23.15;9.38;;;23.30;75.50;;;;;;4985526;28;20513;-72
2023/10/02 11:11:11;;;;;;;21.48;8.50;;;23.30;75.20;;;;;;4986418;28;20047;-72
2023/10/02 11:14:02;;;;;;;28.92;9.73;;;23.30;76.00;;;;;;4989069;28;20058;-72
2023/10/02 11:16:36;;;;;;;20.27;8.25;;;23.20;75.10;;;;;;4988668;28;20053;-71
2023/10/02 11:22:24;;;;;;;25.02;8.73;;;23.00;76.40;;;;;;4985029;28;20577;-74
2023/10/02 11:24:54;;;;;;;27.98;9.43;;;23.20;75.80;;;;;;4985321;28;20058;-74
2023/10/02 11:27:22;;;;;;;23.95;8.57;;;23.60;75.90;;;;;;4986405;28;20046;-73
2023/10/02 11:30:01;;;;;;;27.52;9.45;;;24.20;76.50;;;;;;4976751;28;20711;-73
2023/10/02 11:32:50;;;;;;;22.85;9.57;;;24.80;72.20;;;;;;4982489;28;20042;-73
2023/10/02 11:35:17;;;;;;;20.55;9.13;;;25.30;70.20;;;;;;4983999;28;20570;-73
2023/10/02 11:37:49;;;;;;;26.02;9.82;;;25.60;70.70;;;;;;4997566;22;20582;-73
2023/10/02 11:40:17;;;;;;;25.00;9.60;;;25.50;68.80;;;;;;5003008;28;20459;-78
2023/10/02 11:42:43;;;;;;;44.53;9.90;;;25.40;69.40;;;;;;4993555;28;20140;-78
2023/10/02 11:47:38;;;;;;;24.55;10.30;;;25.80;68.80;;;;;;4979879;28;20042;-73
2023/10/02 11:50:06;;;;;;;21.55;8.73;;;25.60;68.50;;;;;;4984157;28;20050;-73
2023/10/02 11:52:33;;;;;;;21.17;8.70;;;25.80;69.40;;;;;;4972891;28;20050;-73
2023/10/02 11:55:01;;;;;;;24.05;8.90;;;26.20;69.20;;;;;;4977430;28;20082;-73
2023/10/02 11:57:28;;;;;;;27.65;9.85;;;26.40;67.00;;;;;;4983131;28;20057;-73
2023/10/02 11:59:54;;;;;;;23.38;8.57;;;25.90;67.00;;;;;;4982179;28;20082;-73
2023/10/02 12:02:21;;;;;;;20.15;8.27;;;25.70;70.10;;;;;;4978924;28;20073;-73
2023/10/02 12:04:51;;;;;;;19.83;8.10;;;25.50;69.00;;;;;;4971760;28;20046;-73
2023/10/02 12:07:22;;;;;;;19.50;8.27;;;25.20;69.50;;;;;;4981526;28;20050;-73
2023/10/02 12:09:49;;;;;;;27.52;8.93;;;25.30;69.50;;;;;;4963871;28;20046;-73
2023/10/02 12:12:16;;;;;;;22.23;8.48;;;25.30;71.20;;;;;;4986025;28;20058;-73
2023/10/02 12:14:43;;;;;;;37.88;11.05;;;25.60;69.60;;;;;;4997941;23;20088;-73
2023/10/02 12:17:14;;;;;;;23.88;8.93;;;26.30;69.00;;;;;;5007041;28;20054;-73
2023/10/02 12:19:42;;;;;;;23.58;8.95;;;26.70;66.00;;;;;;5016569;28;20050;-73
2023/10/02 12:22:09;;;;;;;21.35;7.53;;;26.50;66.30;;;;;;5004981;28;20163;-73
2023/10/02 12:24:37;;;;;;;23.45;8.02;;;26.00;66.30;;;;;;5003782;28;20053;-73
2023/10/02 12:27:05;;;;;;;25.20;8.55;;;25.90;69.40;;;;;;5004046;28;20057;-73
2023/10/02 12:29:33;;;;;;;20.77;7.90;;;26.00;67.30;;;;;;5011786;28;20521;-73
2023/10/02 12:32:01;;;;;;;19.70;8.35;;;25.90;67.80;;;;;;5009423;28;20058;-79
2023/10/02 12:34:29;;;;;;;19.80;8.45;;;25.90;67.30;;;;;;5014395;28;20037;-79
2023/10/02 12:36:56;;;;;;;22.80;8.18;;;25.90;69.40;;;;;;5020526;28;20057;-81
2023/10/02 12:39:28;;;;;;;20.35;8.65;;;25.80;68.00;;;;;;5017594;28;20045;-78
2023/10/02 12:41:56;;;;;;;18.25;8.23;;;25.50;67.70;;;;;;5009442;28;20704;-78
2023/10/02 12:44:22;;;;;;;20.83;8.40;;;25.30;67.50;;;;;;5009612;23;20062;-71
2023/10/02 12:46:52;;;;;;;19.65;8.77;;;25.10;68.10;;;;;;4962506;28;20051;-72
2023/10/02 12:49:22;;;;;;;20.48;7.97;;;24.80;69.10;;;;;;4965232;28;20077;-72
2023/10/02 12:51:50;;;;;;;21.67;8.30;;;24.70;70.50;;;;;;4985532;28;20070;-72
2023/10/02 12:57:39;;;;;;;21.80;8.27;;;24.40;70.90;;;;;;5020456;23;20043;-72
2023/10/02 13:00:16;;;;;;;24.60;8.95;;;24.40;75.00;;;;;;4983421;28;20065;-72
2023/10/02 13:02:44;;;;;;;23.48;8.25;;;24.60;71.80;;;;;;4962974;28;20054;-72
2023/10/02 13:05:14;;;;;;;22.27;8.93;;;24.60;70.90;;;;;;4965884;28;20050;-72
2023/10/02 13:10:39;;;;;;;19.27;7.47;;;24.40;71.60;;;;;;4962066;28;20174;-71
2023/10/02 13:13:06;;;;;;;21.58;9.10;;;24.40;71.80;;;;;;4961758;28;20121;-72
2023/10/02 13:15:34;;;;;;;22.98;7.93;;;24.40;73.50;;;;;;4954565;28;20065;-72
2023/10/02 13:18:57;;;;;;;20.30;7.97;;;24.40;71.60;;;;;;4961951;28;20066;-71
2023/10/02 13:21:24;;;;;;;19.98;7.32;;;24.30;72.90;;;;;;4976783;28;20141;-77
2023/10/02 13:23:51;;;;;;;24.42;7.57;;;24.20;72.20;;;;;;4987965;28;20054;-78
2023/10/02 13:26:19;;;;;;;16.60;6.93;;;24.20;71.80;;;;;;4966112;28;20070;-78
2023/10/02 13:28:54;;;;;;;18.10;7.90;;;24.20;71.40;;;;;;4966233;28;20859;-77
2023/10/02 13:31:23;;;;;;;20.58;7.40;;;24.30;72.30;;;;;;4963468;28;20590;-78
2023/10/02 13:33:54;;;;;;;17.92;7.25;;;24.30;72.40;;;;;;4961751;28;20047;-77
2023/10/02 13:36:23;;;;;;;19.30;7.40;;;24.20;72.90;;;;;;4964152;28;20109;-77
2023/10/02 13:38:51;;;;;;;20.58;7.57;;;24.30;73.40;;;;;;4964869;28;20298;-78
2023/10/02 13:41:18;;;;;;;19.23;7.50;;;24.20;72.20;;;;;;4961589;28;20052;-78
2023/10/02 13:43:48;;;;;;;17.98;7.75;;;24.10;72.60;;;;;;4964637;28;20050;-78
2023/10/02 13:46:17;;;;;;;23.35;7.80;;;24.10;72.60;;;;;;4962135;28;20106;-77
2023/10/02 13:48:46;;;;;;;17.67;6.70;;;24.00;74.70;;;;;;4963119;28;20435;-77
2023/10/02 13:51:16;;;;;;;25.90;8.00;;;24.00;72.80;;;;;;4964794;28;20109;-77
2023/10/02 13:53:44;;;;;;;17.63;7.43;;;23.90;73.60;;;;;;4961693;28;20498;-77
2023/10/02 13:56:16;;;;;;;17.88;7.07;;;23.80;73.00;;;;;;4966177;28;20371;-78
2023/10/02 13:58:50;;;;;;;24.00;8.13;;;23.70;73.70;;;;;;4964193;28;20515;-77
2023/10/02 14:01:19;;;;;;;15.90;7.47;;;23.60;72.40;;;;;;4964875;28;20090;-78
2023/10/02 14:03:49;;;;;;;22.40;7.78;;;23.60;73.20;;;;;;4965208;28;20174;-77
2023/10/02 14:06:20;;;;;;;24.13;8.27;;;23.50;74.60;;;;;;4966462;28;20121;-77
2023/10/02 14:08:49;;;;;;;18.73;7.40;;;23.50;74.00;;;;;;4965533;28;20043;-76